sensor_id;sensor_type;location;lat;lon;timestamp;pressure;altitude;pressure_sealevel;temperature;humidity
43621;BME280;29213;50.770;7.298;2023-09-18T00:01:36;100027.25;;;18.00;67.43
43621;BME280;29213;50.770;7.298;2023-09-18T00:04:01;100014.25;;;17.97;67.22
43621;BME280;29213;50.770;7.298;2023-09-18T00:06:27;100008.28;;;17.95;67.34
43621;BME280;29213;50.770;7.298;2023-09-18T00:08:53;99960.78;;;17.63;67.20
43621;BME280;29213;50.770;7.298;2023-09-18T00:11:19;100007.91;;;17.92;67.17
43621;BME280;29213;50.770;7.298;2023-09-18T00:13:44;99998.41;;;17.89;67.39
43621;BME280;29213;50.770;7.298;2023-09-18T00:16:09;99916.19;;;17.37;67.39
43621;BME280;29213;50.770;7.298;2023-09-18T00:18:35;99944.50;;;17.58;67.22
43621;BME280;29213;50.770;7.298;2023-09-18T00:21:01;99914.31;;;17.38;67.13
43621;BME280;29213;50.770;7.298;2023-09-18T00:23:26;99972.03;;;17.79;67.50
43621;BME280;29213;50.770;7.298;2023-09-18T00:25:52;99973.28;;;17.76;67.72
43621;BME280;29213;50.770;7.298;2023-09-18T00:28:17;99830.94;;;16.81;67.34
43621;BME280;29213;50.770;7.298;2023-09-18T00:30:47;99970.25;;;17.73;67.46
43621;BME280;29213;50.770;7.298;2023-09-18T00:33:13;99922.56;;;17.43;67.58
43621;BME280;29213;50.770;7.298;2023-09-18T00:35:38;99935.03;;;17.56;67.43
43621;BME280;29213;50.770;7.298;2023-09-18T00:38:03;99937.94;;;17.54;67.46
43621;BME280;29213;50.770;7.298;2023-09-18T00:40:29;99913.97;;;17.34;67.42
43621;BME280;29213;50.770;7.298;2023-09-18T00:42:55;99788.59;;;16.58;67.47
43621;BME280;29213;50.770;7.298;2023-09-18T00:45:20;99778.16;;;16.50;67.40
43621;BME280;29213;50.770;7.298;2023-09-18T00:47:45;99945.78;;;17.56;67.65
43621;BME280;29213;50.770;7.298;2023-09-18T00:50:13;99918.88;;;17.37;67.43
43621;BME280;29213;50.770;7.298;2023-09-18T00:52:39;99948.47;;;17.56;67.51
43621;BME280;29213;50.770;7.298;2023-09-18T00:55:06;99876.97;;;17.11;67.64
43621;BME280;29213;50.770;7.298;2023-09-18T00:57:32;99838.72;;;16.90;67.44
43621;BME280;29213;50.770;7.298;2023-09-18T00:59:58;99818.97;;;16.77;67.53
43621;BME280;29213;50.770;7.298;2023-09-18T01:02:23;99864.44;;;17.04;67.66
43621;BME280;29213;50.770;7.298;2023-09-18T01:04:49;99870.19;;;17.08;67.45
43621;BME280;29213;50.770;7.298;2023-09-18T01:07:15;99851.38;;;16.89;67.58
43621;BME280;29213;50.770;7.298;2023-09-18T01:09:40;99875.34;;;17.09;67.65
43621;BME280;29213;50.770;7.298;2023-09-18T01:12:12;99931.22;;;17.45;67.73
43621;BME280;29213;50.770;7.298;2023-09-18T01:17:34;99922.56;;;17.43;67.68
43621;BME280;29213;50.770;7.298;2023-09-18T01:19:59;99917.25;;;17.36;67.76
43621;BME280;29213;50.770;7.298;2023-09-18T01:22:30;99911.13;;;17.29;67.82
43621;BME280;29213;50.770;7.298;2023-09-18T01:24:55;99776.09;;;16.45;67.74
43621;BME280;29213;50.770;7.298;2023-09-18T01:27:20;99765.88;;;16.35;67.87
43621;BME280;29213;50.770;7.298;2023-09-18T01:29:46;99918.44;;;17.21;68.21
43621;BME280;29213;50.770;7.298;2023-09-18T01:32:12;99860.22;;;16.90;68.07
43621;BME280;29213;50.770;7.298;2023-09-18T01:34:41;99812.94;;;16.63;68.02
43621;BME280;29213;50.770;7.298;2023-09-18T01:37:09;99911.94;;;17.29;68.17
43621;BME280;29213;50.770;7.298;2023-09-18T01:39:35;99913.66;;;17.23;68.97
43621;BME280;29213;50.770;7.298;2023-09-18T01:42:03;99909.34;;;17.22;69.00
43621;BME280;29213;50.770;7.298;2023-09-18T01:44:30;99903.34;;;17.20;69.25
43621;BME280;29213;50.770;7.298;2023-09-18T01:46:58;99880.34;;;17.06;69.04
43621;BME280;29213;50.770;7.298;2023-09-18T01:49:32;99897.38;;;17.18;69.66
43621;BME280;29213;50.770;7.298;2023-09-18T01:51:57;99859.47;;;17.01;69.35
43621;BME280;29213;50.770;7.298;2023-09-18T01:54:23;99835.66;;;16.86;69.37
43621;BME280;29213;50.770;7.298;2023-09-18T01:56:48;99794.69;;;16.65;69.37
43621;BME280;29213;50.770;7.298;2023-09-18T01:59:14;99854.94;;;17.02;69.23
43621;BME280;29213;50.770;7.298;2023-09-18T02:01:39;99856.44;;;16.98;69.00
43621;BME280;29213;50.770;7.298;2023-09-18T02:04:05;99926.59;;;17.33;69.40
43621;BME280;29213;50.770;7.298;2023-09-18T02:06:30;99921.34;;;17.39;69.11
43621;BME280;29213;50.770;7.298;2023-09-18T02:08:56;99904.97;;;17.40;69.13
43621;BME280;29213;50.770;7.298;2023-09-18T02:11:21;99905.13;;;17.45;68.96
43621;BME280;29213;50.770;7.298;2023-09-18T02:13:47;99865.44;;;17.22;69.02
43621;BME280;29213;50.770;7.298;2023-09-18T02:16:12;99870.16;;;17.27;69.00
43621;BME280;29213;50.770;7.298;2023-09-18T02:18:37;99903.84;;;17.48;69.23
43621;BME280;29213;50.770;7.298;2023-09-18T02:21:03;99859.72;;;17.18;69.02
43621;BME280;29213;50.770;7.298;2023-09-18T02:23:28;99824.88;;;17.05;69.01
43621;BME280;29213;50.770;7.298;2023-09-18T02:25:57;99816.66;;;17.00;69.14
43621;BME280;29213;50.770;7.298;2023-09-18T02:28:22;99824.81;;;17.12;69.50
43621;BME280;29213;50.770;7.298;2023-09-18T02:30:48;99842.66;;;17.25;69.84
43621;BME280;29213;50.770;7.298;2023-09-18T02:33:13;99820.78;;;17.21;69.97
43621;BME280;29213;50.770;7.298;2023-09-18T02:35:40;99849.91;;;17.55;70.76
43621;BME280;29213;50.770;7.298;2023-09-18T02:38:06;99658.34;;;16.42;71.28
43621;BME280;29213;50.770;7.298;2023-09-18T02:40:31;99790.41;;;17.44;71.92
43621;BME280;29213;50.770;7.298;2023-09-18T02:42:56;99690.97;;;16.95;71.31
43621;BME280;29213;50.770;7.298;2023-09-18T02:45:22;99747.25;;;17.39;71.62
43621;BME280;29213;50.770;7.298;2023-09-18T02:47:47;99760.03;;;17.56;71.23
43621;BME280;29213;50.770;7.298;2023-09-18T02:50:12;99689.94;;;17.08;71.41
43621;BME280;29213;50.770;7.298;2023-09-18T02:52:38;99699.69;;;17.21;71.80
43621;BME280;29213;50.770;7.298;2023-09-18T02:55:03;99678.84;;;17.04;71.45
43621;BME280;29213;50.770;7.298;2023-09-18T02:57:29;99772.44;;;17.69;72.03
43621;BME280;29213;50.770;7.298;2023-09-18T02:59:55;99787.72;;;17.75;71.54
43621;BME280;29213;50.770;7.298;2023-09-18T03:02:20;99716.94;;;17.44;71.28
43621;BME280;29213;50.770;7.298;2023-09-18T03:04:45;99781.28;;;17.88;70.94
43621;BME280;29213;50.770;7.298;2023-09-18T03:07:12;99737.31;;;17.52;70.80
43621;BME280;29213;50.770;7.298;2023-09-18T03:09:38;99729.59;;;17.55;71.08
43621;BME280;29213;50.770;7.298;2023-09-18T03:12:04;99785.88;;;17.99;70.67
43621;BME280;29213;50.770;7.298;2023-09-18T03:14:29;99717.53;;;17.46;70.78
43621;BME280;29213;50.770;7.298;2023-09-18T03:16:54;99768.88;;;17.75;70.97
43621;BME280;29213;50.770;7.298;2023-09-18T03:19:20;99717.66;;;17.39;71.30
43621;BME280;29213;50.770;7.298;2023-09-18T03:21:47;99783.03;;;17.70;71.57
43621;BME280;29213;50.770;7.298;2023-09-18T03:24:13;99725.59;;;17.34;71.50
43621;BME280;29213;50.770;7.298;2023-09-18T03:26:38;99665.69;;;16.96;71.76
43621;BME280;29213;50.770;7.298;2023-09-18T03:29:03;99702.34;;;17.09;71.65
43621;BME280;29213;50.770;7.298;2023-09-18T03:31:29;99743.03;;;17.43;71.86
43621;BME280;29213;50.770;7.298;2023-09-18T03:33:55;99775.16;;;17.57;71.59
43621;BME280;29213;50.770;7.298;2023-09-18T03:36:21;99743.16;;;17.36;71.64
43621;BME280;29213;50.770;7.298;2023-09-18T03:38:48;99714.22;;;17.20;71.64
43621;BME280;29213;50.770;7.298;2023-09-18T03:41:13;99758.13;;;17.44;71.49
43621;BME280;29213;50.770;7.298;2023-09-18T03:43:39;99790.50;;;17.68;71.32
43621;BME280;29213;50.770;7.298;2023-09-18T03:46:06;99789.31;;;17.64;71.31
43621;BME280;29213;50.770;7.298;2023-09-18T03:48:32;99797.38;;;17.64;71.51
43621;BME280;29213;50.770;7.298;2023-09-18T03:51:03;99690.25;;;17.00;71.25
43621;BME280;29213;50.770;7.298;2023-09-18T03:53:29;99754.28;;;17.40;71.55
43621;BME280;29213;50.770;7.298;2023-09-18T03:55:55;99624.03;;;16.56;71.50
43621;BME280;29213;50.770;7.298;2023-09-18T03:58:20;99794.69;;;17.64;71.55
43621;BME280;29213;50.770;7.298;2023-09-18T04:00:45;99791.44;;;17.62;71.85
43621;BME280;29213;50.770;7.298;2023-09-18T04:03:11;99775.59;;;17.54;71.56
43621;BME280;29213;50.770;7.298;2023-09-18T04:05:36;99716.41;;;17.23;71.12
43621;BME280;29213;50.770;7.298;2023-09-18T04:08:02;99786.97;;;17.68;71.45
43621;BME280;29213;50.770;7.298;2023-09-18T04:10:27;99707.63;;;17.16;71.34
43621;BME280;29213;50.770;7.298;2023-09-18T04:12:53;99788.41;;;17.70;71.12
43621;BME280;29213;50.770;7.298;2023-09-18T04:15:18;99786.91;;;17.74;71.05
43621;BME280;29213;50.770;7.298;2023-09-18T04:17:44;99796.63;;;17.75;71.09
43621;BME280;29213;50.770;7.298;2023-09-18T04:20:10;99752.63;;;17.39;70.75
43621;BME280;29213;50.770;7.298;2023-09-18T04:22:36;99731.16;;;17.20;71.03
43621;BME280;29213;50.770;7.298;2023-09-18T04:25:01;99756.97;;;17.40;70.67
43621;BME280;29213;50.770;7.298;2023-09-18T04:27:30;99804.69;;;17.75;70.63
43621;BME280;29213;50.770;7.298;2023-09-18T04:29:56;99786.16;;;17.67;70.55
43621;BME280;29213;50.770;7.298;2023-09-18T04:32:21;99676.59;;;17.01;70.29
43621;BME280;29213;50.770;7.298;2023-09-18T04:34:47;99737.75;;;17.36;70.13
43621;BME280;29213;50.770;7.298;2023-09-18T04:37:12;99692.44;;;17.21;70.16
43621;BME280;29213;50.770;7.298;2023-09-18T04:39:37;99759.56;;;17.59;69.97
43621;BME280;29213;50.770;7.298;2023-09-18T04:42:03;99732.97;;;17.39;70.05
43621;BME280;29213;50.770;7.298;2023-09-18T04:44:31;99762.50;;;17.69;69.71
43621;BME280;29213;50.770;7.298;2023-09-18T04:46:57;99757.34;;;17.68;69.31
43621;BME280;29213;50.770;7.298;2023-09-18T04:49:23;99758.09;;;17.75;69.31
43621;BME280;29213;50.770;7.298;2023-09-18T04:51:49;99756.00;;;17.77;69.16
43621;BME280;29213;50.770;7.298;2023-09-18T04:54:14;99769.81;;;17.81;69.18
43621;BME280;29213;50.770;7.298;2023-09-18T04:56:41;99749.66;;;17.71;68.54
43621;BME280;29213;50.770;7.298;2023-09-18T04:59:06;99765.00;;;17.83;68.70
43621;BME280;29213;50.770;7.298;2023-09-18T05:01:31;99767.84;;;17.88;68.70
43621;BME280;29213;50.770;7.298;2023-09-18T05:03:57;99739.34;;;17.68;68.78
43621;BME280;29213;50.770;7.298;2023-09-18T05:06:22;99769.13;;;17.97;68.44
43621;BME280;29213;50.770;7.298;2023-09-18T05:08:48;99758.47;;;18.02;68.47
43621;BME280;29213;50.770;7.298;2023-09-18T05:11:13;99537.13;;;16.62;67.79
43621;BME280;29213;50.770;7.298;2023-09-18T05:13:39;99762.22;;;18.01;68.34
43621;BME280;29213;50.770;7.298;2023-09-18T05:16:04;99764.69;;;17.91;68.22
43621;BME280;29213;50.770;7.298;2023-09-18T05:18:31;99769.25;;;17.91;67.80
43621;BME280;29213;50.770;7.298;2023-09-18T05:20:56;99727.25;;;17.59;68.13
43621;BME280;29213;50.770;7.298;2023-09-18T05:23:23;99722.09;;;17.57;67.89
43621;BME280;29213;50.770;7.298;2023-09-18T05:25:48;99805.69;;;18.05;67.83
43621;BME280;29213;50.770;7.298;2023-09-18T05:28:14;99778.59;;;17.88;67.88
43621;BME280;29213;50.770;7.298;2023-09-18T05:30:39;99816.91;;;18.02;67.79
43621;BME280;29213;50.770;7.298;2023-09-18T05:33:05;99755.50;;;17.68;67.79
43621;BME280;29213;50.770;7.298;2023-09-18T05:35:35;99810.25;;;18.05;67.74
43621;BME280;29213;50.770;7.298;2023-09-18T05:38:04;99768.41;;;17.78;67.61
43621;BME280;29213;50.770;7.298;2023-09-18T05:40:30;99769.34;;;17.72;68.21
43621;BME280;29213;50.770;7.298;2023-09-18T05:42:56;99789.97;;;17.90;67.86
43621;BME280;29213;50.770;7.298;2023-09-18T05:45:22;99804.06;;;18.04;68.04
43621;BME280;29213;50.770;7.298;2023-09-18T05:47:48;99800.88;;;17.95;67.92
43621;BME280;29213;50.770;7.298;2023-09-18T05:50:14;99719.06;;;17.42;67.84
43621;BME280;29213;50.770;7.298;2023-09-18T05:52:44;99812.00;;;18.11;67.73
43621;BME280;29213;50.770;7.298;2023-09-18T05:55:10;99771.94;;;17.79;67.54
43621;BME280;29213;50.770;7.298;2023-09-18T05:57:36;99799.69;;;18.03;67.44
43621;BME280;29213;50.770;7.298;2023-09-18T06:00:02;99801.78;;;17.89;67.45
43621;BME280;29213;50.770;7.298;2023-09-18T06:02:28;99760.63;;;17.58;67.62
43621;BME280;29213;50.770;7.298;2023-09-18T06:04:58;99862.16;;;18.12;67.68
43621;BME280;29213;50.770;7.298;2023-09-18T06:07:26;99873.28;;;18.15;67.67
43621;BME280;29213;50.770;7.298;2023-09-18T06:09:51;99861.91;;;18.13;67.64
43621;BME280;29213;50.770;7.298;2023-09-18T06:12:17;99857.81;;;18.11;67.28
43621;BME280;29213;50.770;7.298;2023-09-18T06:14:42;99764.25;;;17.52;67.20
43621;BME280;29213;50.770;7.298;2023-09-18T06:17:08;99811.03;;;17.81;67.02
43621;BME280;29213;50.770;7.298;2023-09-18T06:19:35;99754.84;;;17.42;67.46
43621;BME280;29213;50.770;7.298;2023-09-18T06:22:00;99762.00;;;17.36;67.76
43621;BME280;29213;50.770;7.298;2023-09-18T06:24:26;99761.16;;;17.36;67.95
43621;BME280;29213;50.770;7.298;2023-09-18T06:26:51;99792.44;;;17.61;67.99
43621;BME280;29213;50.770;7.298;2023-09-18T06:29:16;99789.66;;;17.56;67.70
43621;BME280;29213;50.770;7.298;2023-09-18T06:31:42;99820.16;;;17.80;67.81
43621;BME280;29213;50.770;7.298;2023-09-18T06:34:07;99841.16;;;17.90;67.71
43621;BME280;29213;50.770;7.298;2023-09-18T06:36:33;99862.63;;;18.21;68.02
43621;BME280;29213;50.770;7.298;2023-09-18T06:38:58;99826.75;;;18.08;67.31
43621;BME280;29213;50.770;7.298;2023-09-18T06:41:24;99837.66;;;18.13;67.34
43621;BME280;29213;50.770;7.298;2023-09-18T06:43:49;99779.63;;;17.75;67.69
43621;BME280;29213;50.770;7.298;2023-09-18T06:46:15;99787.75;;;17.87;67.76
43621;BME280;29213;50.770;7.298;2023-09-18T06:48:41;99754.09;;;17.66;67.68
43621;BME280;29213;50.770;7.298;2023-09-18T06:51:14;99794.53;;;17.89;67.60
43621;BME280;29213;50.770;7.298;2023-09-18T06:53:40;99859.72;;;18.34;67.51
43621;BME280;29213;50.770;7.298;2023-09-18T06:56:05;99855.38;;;18.33;67.65
43621;BME280;29213;50.770;7.298;2023-09-18T06:58:32;99876.44;;;18.36;67.81
43621;BME280;29213;50.770;7.298;2023-09-18T07:00:57;99835.31;;;18.17;67.84
43621;BME280;29213;50.770;7.298;2023-09-18T07:03:23;99876.72;;;18.35;67.49
43621;BME280;29213;50.770;7.298;2023-09-18T07:05:48;99806.47;;;17.82;67.75
43621;BME280;29213;50.770;7.298;2023-09-18T07:08:14;99888.91;;;18.37;67.32
43621;BME280;29213;50.770;7.298;2023-09-18T07:10:41;99794.19;;;17.86;67.36
43621;BME280;29213;50.770;7.298;2023-09-18T07:13:06;99834.16;;;18.13;67.24
43621;BME280;29213;50.770;7.298;2023-09-18T07:15:32;99880.94;;;18.42;66.82
43621;BME280;29213;50.770;7.298;2023-09-18T07:17:57;99888.78;;;18.44;67.06
43621;BME280;29213;50.770;7.298;2023-09-18T07:20:23;99847.97;;;18.16;66.60
43621;BME280;29213;50.770;7.298;2023-09-18T07:22:49;99882.56;;;18.43;66.40
43621;BME280;29213;50.770;7.298;2023-09-18T07:25:16;99880.22;;;18.47;66.30
43621;BME280;29213;50.770;7.298;2023-09-18T07:27:41;99791.00;;;17.89;65.71
43621;BME280;29213;50.770;7.298;2023-09-18T07:30:10;99853.47;;;18.34;65.78
43621;BME280;29213;50.770;7.298;2023-09-18T07:32:36;99859.47;;;18.36;65.44
43621;BME280;29213;50.770;7.298;2023-09-18T07:35:02;99798.53;;;17.99;65.33
43621;BME280;29213;50.770;7.298;2023-09-18T07:37:30;99798.28;;;18.00;65.74
43621;BME280;29213;50.770;7.298;2023-09-18T07:39:56;99856.31;;;18.27;64.73
43621;BME280;29213;50.770;7.298;2023-09-18T07:42:25;99834.25;;;18.06;65.29
43621;BME280;29213;50.770;7.298;2023-09-18T07:44:50;99838.84;;;18.18;65.08
43621;BME280;29213;50.770;7.298;2023-09-18T07:47:16;99868.25;;;18.31;64.56
43621;BME280;29213;50.770;7.298;2023-09-18T07:49:41;99795.38;;;17.90;64.74
43621;BME280;29213;50.770;7.298;2023-09-18T07:52:07;99847.28;;;18.21;64.12
43621;BME280;29213;50.770;7.298;2023-09-18T07:54:32;99912.13;;;18.62;64.82
43621;BME280;29213;50.770;7.298;2023-09-18T07:56:57;99749.28;;;17.68;64.63
43621;BME280;29213;50.770;7.298;2023-09-18T07:59:23;99857.59;;;18.36;64.60
43621;BME280;29213;50.770;7.298;2023-09-18T08:01:50;99827.34;;;18.10;64.30
43621;BME280;29213;50.770;7.298;2023-09-18T08:04:15;99924.22;;;18.72;63.76
43621;BME280;29213;50.770;7.298;2023-09-18T08:06:41;99858.06;;;18.21;64.23
43621;BME280;29213;50.770;7.298;2023-09-18T08:09:06;99935.13;;;18.77;63.67
43621;BME280;29213;50.770;7.298;2023-09-18T08:11:34;99884.44;;;18.43;64.20
43621;BME280;29213;50.770;7.298;2023-09-18T08:14:01;99940.66;;;18.82;63.83
43621;BME280;29213;50.770;7.298;2023-09-18T08:16:26;99901.81;;;18.59;62.70
43621;BME280;29213;50.770;7.298;2023-09-18T08:18:52;99914.38;;;18.65;63.56
43621;BME280;29213;50.770;7.298;2023-09-18T08:21:18;99913.31;;;18.66;63.20
43621;BME280;29213;50.770;7.298;2023-09-18T08:23:43;99838.84;;;18.18;63.00
43621;BME280;29213;50.770;7.298;2023-09-18T08:26:10;99839.78;;;18.23;63.20
43621;BME280;29213;50.770;7.298;2023-09-18T08:28:35;99930.44;;;18.84;62.98
43621;BME280;29213;50.770;7.298;2023-09-18T08:31:04;99896.97;;;18.49;62.73
43621;BME280;29213;50.770;7.298;2023-09-18T08:33:29;99952.94;;;18.90;62.60
43621;BME280;29213;50.770;7.298;2023-09-18T08:35:54;99896.31;;;18.54;62.41
43621;BME280;29213;50.770;7.298;2023-09-18T08:38:20;99951.53;;;18.87;62.33
43621;BME280;29213;50.770;7.298;2023-09-18T08:40:45;99966.66;;;19.00;62.93
43621;BME280;29213;50.770;7.298;2023-09-18T08:43:14;99942.06;;;18.85;62.17
43621;BME280;29213;50.770;7.298;2023-09-18T08:45:56;99951.53;;;18.87;62.45
43621;BME280;29213;50.770;7.298;2023-09-18T08:48:27;99979.09;;;19.01;62.01
43621;BME280;29213;50.770;7.298;2023-09-18T08:51:01;99926.09;;;18.71;61.60
43621;BME280;29213;50.770;7.298;2023-09-18T08:53:32;99960.34;;;18.94;61.45
43621;BME280;29213;50.770;7.298;2023-09-18T08:55:59;99960.34;;;18.94;61.34
43621;BME280;29213;50.770;7.298;2023-09-18T08:58:32;99888.88;;;18.49;60.38
43621;BME280;29213;50.770;7.298;2023-09-18T09:01:03;99902.75;;;18.53;60.62
43621;BME280;29213;50.770;7.298;2023-09-18T09:03:31;99967.13;;;18.97;61.10
43621;BME280;29213;50.770;7.298;2023-09-18T09:05:57;99967.13;;;18.97;61.06
43621;BME280;29213;50.770;7.298;2023-09-18T09:08:26;99969.47;;;19.05;61.20
43621;BME280;29213;50.770;7.298;2023-09-18T09:10:52;99981.44;;;19.09;60.50
43621;BME280;29213;50.770;7.298;2023-09-18T09:13:17;99966.44;;;19.14;60.87
43621;BME280;29213;50.770;7.298;2023-09-18T09:15:45;99977.22;;;19.14;60.29
43621;BME280;29213;50.770;7.298;2023-09-18T09:18:12;99984.25;;;19.15;60.26
43621;BME280;29213;50.770;7.298;2023-09-18T09:20:39;99989.75;;;19.20;60.45
43621;BME280;29213;50.770;7.298;2023-09-18T09:23:06;99993.63;;;19.24;60.60
43621;BME280;29213;50.770;7.298;2023-09-18T09:25:32;99986.69;;;19.28;60.85
43621;BME280;29213;50.770;7.298;2023-09-18T09:27:59;99973.69;;;19.25;60.61
43621;BME280;29213;50.770;7.298;2023-09-18T09:30:27;99846.81;;;18.36;60.61
43621;BME280;29213;50.770;7.298;2023-09-18T09:32:54;99885.06;;;18.69;60.96
43621;BME280;29213;50.770;7.298;2023-09-18T09:35:25;99930.06;;;19.04;60.95
43621;BME280;29213;50.770;7.298;2023-09-18T09:37:57;99990.31;;;19.46;60.92
43621;BME280;29213;50.770;7.298;2023-09-18T09:40:24;99984.69;;;19.47;61.03
43621;BME280;29213;50.770;7.298;2023-09-18T09:42:54;99985.63;;;19.53;61.12
43621;BME280;29213;50.770;7.298;2023-09-18T09:45:26;99904.72;;;19.05;60.47
43621;BME280;29213;50.770;7.298;2023-09-18T09:47:54;99986.81;;;19.57;59.64
43621;BME280;29213;50.770;7.298;2023-09-18T09:50:20;99856.31;;;18.75;59.75
43621;BME280;29213;50.770;7.298;2023-09-18T09:52:49;99947.25;;;19.27;60.16
43621;BME280;29213;50.770;7.298;2023-09-18T09:55:28;99986.44;;;19.54;60.71
43621;BME280;29213;50.770;7.298;2023-09-18T09:57:56;100007.22;;;18.69;82.67
43621;BME280;29213;50.770;7.298;2023-09-18T10:00:24;99945.03;;;17.67;86.35
43621;BME280;29213;50.770;7.298;2023-09-18T10:03:04;100007.91;;;17.92;87.43
43621;BME280;29213;50.770;7.298;2023-09-18T10:05:35;99998.72;;;17.81;85.00
43621;BME280;29213;50.770;7.298;2023-09-18T10:08:07;99996.00;;;17.99;85.09
43621;BME280;29213;50.770;7.298;2023-09-18T10:10:38;99990.06;;;18.09;81.66
43621;BME280;29213;50.770;7.298;2023-09-18T10:13:12;99884.00;;;17.61;76.98
43621;BME280;29213;50.770;7.298;2023-09-18T10:15:42;99903.34;;;17.88;69.78
43621;BME280;29213;50.770;7.298;2023-09-18T10:18:22;99910.75;;;18.17;67.82
43621;BME280;29213;50.770;7.298;2023-09-18T10:20:58;99937.00;;;18.52;67.63
43621;BME280;29213;50.770;7.298;2023-09-18T10:26:14;99896.53;;;18.64;64.26
43621;BME280;29213;50.770;7.298;2023-09-18T10:28:44;99979.69;;;19.39;64.28
43621;BME280;29213;50.770;7.298;2023-09-18T10:31:12;99984.84;;;19.41;61.69
43621;BME280;29213;50.770;7.298;2023-09-18T10:33:39;99960.66;;;19.34;61.81
43621;BME280;29213;50.770;7.298;2023-09-18T10:36:06;99977.53;;;19.53;62.06
43621;BME280;29213;50.770;7.298;2023-09-18T10:38:34;99980.34;;;19.58;61.65
43621;BME280;29213;50.770;7.298;2023-09-18T10:41:01;99901.06;;;19.12;60.58
43621;BME280;29213;50.770;7.298;2023-09-18T10:43:28;99878.13;;;18.85;60.54
43621;BME280;29213;50.770;7.298;2023-09-18T10:45:53;99964.97;;;19.47;60.20
43621;BME280;29213;50.770;7.298;2023-09-18T10:48:20;99873.28;;;18.99;60.07
43621;BME280;29213;50.770;7.298;2023-09-18T10:50:47;99893.50;;;19.26;59.80
43621;BME280;29213;50.770;7.298;2023-09-18T10:53:13;99948.25;;;19.62;59.89
43621;BME280;29213;50.770;7.298;2023-09-18T10:55:39;99962.97;;;19.83;59.23
43621;BME280;29213;50.770;7.298;2023-09-18T10:58:04;99998.81;;;20.20;59.14
43621;BME280;29213;50.770;7.298;2023-09-18T11:00:31;100000.53;;;20.26;58.77
43621;BME280;29213;50.770;7.298;2023-09-18T11:03:23;99985.53;;;20.35;58.15
43621;BME280;29213;50.770;7.298;2023-09-18T11:06:02;99983.56;;;20.31;57.97
43621;BME280;29213;50.770;7.298;2023-09-18T11:08:33;99882.41;;;19.80;56.12
43621;BME280;29213;50.770;7.298;2023-09-18T11:11:08;99988.00;;;20.37;55.85
43621;BME280;29213;50.770;7.298;2023-09-18T11:13:43;99990.47;;;20.38;56.29
43621;BME280;29213;50.770;7.298;2023-09-18T11:16:33;99979.00;;;20.48;56.96
43621;BME280;29213;50.770;7.298;2023-09-18T11:21:29;99976.22;;;20.60;56.20
43621;BME280;29213;50.770;7.298;2023-09-18T11:26:28;99913.19;;;20.25;55.67
43621;BME280;29213;50.770;7.298;2023-09-18T11:28:54;99878.94;;;20.14;54.79
43621;BME280;29213;50.770;7.298;2023-09-18T11:31:19;99962.75;;;20.82;54.66
43621;BME280;29213;50.770;7.298;2023-09-18T11:33:47;99916.69;;;20.60;54.18
43621;BME280;29213;50.770;7.298;2023-09-18T11:36:28;99913.69;;;20.57;53.63
43621;BME280;29213;50.770;7.298;2023-09-18T11:39:00;99901.63;;;20.64;54.12
43621;BME280;29213;50.770;7.298;2023-09-18T11:41:32;99974.97;;;21.02;54.02
43621;BME280;29213;50.770;7.298;2023-09-18T11:46:49;99950.84;;;21.01;53.18
43621;BME280;29213;50.770;7.298;2023-09-18T11:49:21;99954.25;;;21.13;52.41
43621;BME280;29213;50.770;7.298;2023-09-18T11:51:54;99917.50;;;20.78;51.87
43621;BME280;29213;50.770;7.298;2023-09-18T11:54:20;99945.69;;;20.99;52.41
43621;BME280;29213;50.770;7.298;2023-09-18T11:56:46;99903.97;;;20.78;51.92
43621;BME280;29213;50.770;7.298;2023-09-18T11:59:12;99928.31;;;20.95;51.76
43621;BME280;29213;50.770;7.298;2023-09-18T12:01:38;99886.19;;;20.82;51.64
43621;BME280;29213;50.770;7.298;2023-09-18T12:04:12;99904.97;;;21.11;51.00
43621;BME280;29213;50.770;7.298;2023-09-18T12:06:41;99881.56;;;21.00;51.38
43621;BME280;29213;50.770;7.298;2023-09-18T12:09:07;99934.31;;;21.42;51.40
43621;BME280;29213;50.770;7.298;2023-09-18T12:11:34;99919.13;;;21.41;51.53
43621;BME280;29213;50.770;7.298;2023-09-18T12:14:03;99854.50;;;21.00;51.54
43621;BME280;29213;50.770;7.298;2023-09-18T12:16:29;99916.34;;;21.58;49.92
43621;BME280;29213;50.770;7.298;2023-09-18T12:18:55;99916.88;;;21.55;50.18
43621;BME280;29213;50.770;7.298;2023-09-18T12:21:22;99925.63;;;21.62;49.69
43621;BME280;29213;50.770;7.298;2023-09-18T12:23:47;99906.41;;;21.64;49.32
43621;BME280;29213;50.770;7.298;2023-09-18T12:26:15;99912.75;;;21.74;48.56
43621;BME280;29213;50.770;7.298;2023-09-18T12:28:42;99908.94;;;21.75;48.75
43621;BME280;29213;50.770;7.298;2023-09-18T12:31:15;99874.34;;;21.55;49.25
43621;BME280;29213;50.770;7.298;2023-09-18T12:33:42;99886.97;;;21.72;47.86
43621;BME280;29213;50.770;7.298;2023-09-18T12:36:13;99885.13;;;21.78;48.31
43621;BME280;29213;50.770;7.298;2023-09-18T12:38:40;99905.00;;;22.16;48.86
43621;BME280;29213;50.770;7.298;2023-09-18T12:41:05;99809.44;;;21.66;48.67
43621;BME280;29213;50.770;7.298;2023-09-18T12:43:39;99913.28;;;22.37;47.74
43621;BME280;29213;50.770;7.298;2023-09-18T12:46:08;99847.06;;;22.27;47.65
43621;BME280;29213;50.770;7.298;2023-09-18T12:48:38;99904.59;;;22.73;47.26
43621;BME280;29213;50.770;7.298;2023-09-18T12:51:07;99903.03;;;22.87;46.61
43621;BME280;29213;50.770;7.298;2023-09-18T12:53:33;99909.31;;;22.93;47.17
43621;BME280;29213;50.770;7.298;2023-09-18T12:56:06;99898.94;;;22.79;47.16
43621;BME280;29213;50.770;7.298;2023-09-18T12:58:32;99908.47;;;22.87;46.43
43621;BME280;29213;50.770;7.298;2023-09-18T13:00:57;99912.28;;;22.86;46.20
43621;BME280;29213;50.770;7.298;2023-09-18T13:03:23;99819.97;;;22.27;45.99
43621;BME280;29213;50.770;7.298;2023-09-18T13:05:48;99876.59;;;22.62;45.85
43621;BME280;29213;50.770;7.298;2023-09-18T13:08:20;99925.31;;;22.89;45.08
43621;BME280;29213;50.770;7.298;2023-09-18T13:10:48;99917.78;;;22.97;45.08
43621;BME280;29213;50.770;7.298;2023-09-18T13:13:20;99910.16;;;22.93;44.55